createdAt,value
2022-11-06T00:01:47.154Z,8.90
2022-11-06T00:04:34.883Z,9.00
2022-11-06T00:07:22.774Z,9.20
2022-11-06T00:10:10.788Z,9.00
2022-11-06T00:12:58.328Z,9.10
2022-11-06T00:15:46.362Z,9.00
2022-11-06T00:18:34.449Z,8.90
2022-11-06T00:21:23.828Z,8.90
2022-11-06T00:24:13.779Z,8.90
2022-11-06T00:27:01.322Z,8.90
2022-11-06T00:29:48.708Z,9.00
2022-11-06T00:32:39.693Z,9.00
2022-11-06T00:35:27.512Z,9.00
2022-11-06T00:38:15.522Z,9.10
2022-11-06T00:41:07.733Z,9.10
2022-11-06T00:43:55.493Z,9.20
2022-11-06T00:46:43.374Z,9.30
2022-11-06T00:49:31.370Z,9.40
2022-11-06T00:52:19.073Z,9.40
2022-11-06T00:55:06.877Z,9.50
2022-11-06T00:57:59.089Z,9.50
2022-11-06T01:00:46.802Z,9.60
2022-11-06T01:03:34.127Z,10.20
2022-11-06T01:06:22.787Z,9.70
2022-11-06T01:09:10.829Z,9.70
2022-11-06T01:12:12.942Z,9.70
2022-11-06T01:15:02.796Z,9.70
2022-11-06T01:17:50.370Z,9.70
2022-11-06T01:20:38.596Z,9.80
2022-11-06T01:23:26.510Z,9.80
2022-11-06T01:26:14.873Z,9.70
2022-11-06T01:29:02.425Z,9.70
2022-11-06T01:31:51.637Z,9.70
2022-11-06T01:34:39.432Z,9.70
2022-11-06T01:37:27.173Z,9.60
2022-11-06T01:40:15.153Z,9.60
2022-11-06T01:43:04.328Z,9.60
2022-11-06T01:45:52.618Z,9.60
2022-11-06T01:48:43.160Z,9.70
2022-11-06T01:51:32.923Z,9.70
2022-11-06T01:54:21.038Z,9.70
2022-11-06T01:57:09.447Z,9.70
2022-11-06T01:59:57.308Z,9.80
2022-11-06T02:02:45.364Z,9.80
2022-11-06T02:05:34.575Z,9.80
2022-11-06T02:08:23.137Z,9.90
2022-11-06T02:11:10.847Z,9.90
2022-11-06T02:14:02.879Z,9.90
2022-11-06T02:16:53.232Z,9.90
2022-11-06T02:19:50.333Z,9.90
2022-11-06T02:22:48.919Z,9.90
2022-11-06T02:25:44.892Z,9.90
2022-11-06T02:28:35.594Z,10.00
2022-11-06T02:31:25.736Z,10.00
2022-11-06T02:34:14.807Z,10.00
2022-11-06T02:37:03.661Z,10.00
2022-11-06T02:39:52.831Z,10.00
2022-11-06T02:42:42.761Z,10.00
2022-11-06T02:45:34.422Z,10.00
2022-11-06T02:48:24.320Z,10.00
2022-11-06T02:51:14.543Z,10.00
2022-11-06T02:54:03.784Z,10.00
2022-11-06T02:56:53.580Z,9.90
2022-11-06T02:59:43.595Z,9.90
2022-11-06T03:02:35.161Z,9.80
2022-11-06T03:05:26.011Z,9.80
2022-11-06T03:08:16.750Z,9.70
2022-11-06T03:11:07.874Z,9.70
2022-11-06T03:13:58.016Z,9.60
2022-11-06T03:16:52.046Z,9.60
2022-11-06T03:19:48.007Z,9.60
2022-11-06T03:22:41.361Z,9.60
2022-11-06T03:25:30.675Z,9.60
2022-11-06T03:28:23.724Z,9.60
2022-11-06T03:31:14.238Z,9.70
2022-11-06T03:34:03.769Z,9.70
2022-11-06T03:36:53.959Z,9.80
2022-11-06T03:39:43.864Z,9.80
2022-11-06T03:42:32.208Z,9.90
2022-11-06T03:45:22.808Z,9.80
2022-11-06T03:48:12.582Z,9.80
2022-11-06T03:51:04.608Z,9.80
2022-11-06T03:53:55.718Z,9.80
2022-11-06T03:56:46.392Z,9.80
2022-11-06T03:59:35.411Z,9.70
2022-11-06T04:02:25.222Z,9.60
2022-11-06T04:05:16.278Z,9.70
2022-11-06T04:08:22.503Z,9.70
2022-11-06T04:11:28.969Z,9.60
2022-11-06T04:14:17.905Z,9.60
2022-11-06T04:17:07.970Z,9.60
2022-11-06T04:19:58.694Z,9.50
2022-11-06T04:22:51.501Z,9.60
2022-11-06T04:26:01.027Z,9.70
2022-11-06T04:28:54.434Z,9.50
2022-11-06T04:31:45.499Z,9.60
2022-11-06T04:34:35.534Z,9.70
2022-11-06T04:37:25.827Z,9.60
2022-11-06T04:40:18.685Z,9.60
2022-11-06T04:43:07.761Z,9.50
2022-11-06T04:45:58.960Z,9.50
2022-11-06T04:48:47.003Z,9.40
2022-11-06T04:51:36.843Z,9.40
2022-11-06T04:54:24.208Z,9.40
2022-11-06T04:57:12.088Z,9.20
2022-11-06T04:59:59.372Z,9.20
2022-11-06T05:02:47.848Z,9.10
2022-11-06T05:05:35.576Z,9.10
2022-11-06T05:08:23.307Z,10.10
2022-11-06T05:11:11.317Z,9.00
2022-11-06T05:13:58.490Z,8.90
2022-11-06T05:16:46.507Z,8.90
2022-11-06T05:19:35.769Z,8.80
2022-11-06T05:22:41.179Z,8.90
2022-11-06T05:25:30.217Z,8.90
2022-11-06T05:28:18.158Z,8.90
2022-11-06T05:31:06.118Z,9.00
2022-11-06T05:33:53.784Z,9.10
2022-11-06T05:36:42.746Z,9.10
2022-11-06T05:39:30.951Z,9.20
2022-11-06T05:42:18.432Z,9.30
2022-11-06T05:45:06.451Z,9.40
2022-11-06T05:47:54.198Z,9.40
2022-11-06T05:50:45.003Z,9.50
2022-11-06T05:53:38.059Z,9.60
2022-11-06T05:56:25.373Z,9.60
2022-11-06T05:59:13.123Z,9.60
2022-11-06T06:02:01.051Z,9.60
2022-11-06T06:04:50.263Z,9.60
2022-11-06T06:07:37.436Z,9.60
2022-11-06T06:10:26.782Z,9.60
2022-11-06T06:13:15.358Z,9.60
2022-11-06T06:16:03.091Z,10.00
2022-11-06T06:18:51.139Z,9.60
2022-11-06T06:21:41.451Z,9.60
2022-11-06T06:24:28.694Z,9.60
2022-11-06T06:27:18.359Z,9.70
2022-11-06T06:30:06.375Z,9.70
2022-11-06T06:32:54.414Z,9.60
2022-11-06T06:35:42.213Z,9.70
2022-11-06T06:38:30.284Z,9.60
2022-11-06T06:41:18.448Z,9.60
2022-11-06T06:44:07.832Z,9.60
2022-11-06T06:46:55.597Z,9.60
2022-11-06T06:49:42.797Z,9.60
2022-11-06T06:52:30.401Z,9.60
2022-11-06T06:55:17.681Z,9.60
2022-11-06T06:58:05.089Z,9.60
2022-11-06T07:00:55.253Z,9.70
2022-11-06T07:03:42.961Z,9.70
2022-11-06T07:06:30.606Z,9.70
2022-11-06T07:09:18.653Z,9.80
2022-11-06T07:12:06.798Z,9.80
2022-11-06T07:14:54.888Z,9.80
2022-11-06T07:17:43.263Z,9.80
2022-11-06T07:20:31.490Z,9.90
2022-11-06T07:23:19.395Z,9.90
2022-11-06T07:26:07.505Z,9.90
2022-11-06T07:28:55.019Z,9.90
2022-11-06T07:31:43.072Z,10.00
2022-11-06T07:34:32.281Z,9.90
2022-11-06T07:37:20.257Z,9.90
2022-11-06T07:40:08.984Z,9.90
2022-11-06T07:42:56.632Z,9.90
2022-11-06T07:45:45.232Z,10.10
2022-11-06T07:48:33.158Z,10.00
2022-11-06T07:51:21.681Z,10.10
2022-11-06T07:54:09.679Z,10.10
2022-11-06T07:56:57.840Z,10.10
2022-11-06T07:59:45.817Z,10.10
2022-11-06T08:02:33.746Z,10.20
2022-11-06T08:05:21.061Z,10.10
2022-11-06T08:08:10.798Z,10.20
2022-11-06T08:11:02.425Z,10.20
2022-11-06T08:13:50.557Z,10.20
2022-11-06T08:16:38.371Z,10.30
2022-11-06T08:19:26.647Z,10.30
2022-11-06T08:22:14.551Z,10.40
2022-11-06T08:25:03.835Z,10.40
2022-11-06T08:27:52.158Z,10.40
2022-11-06T08:30:39.748Z,10.40
2022-11-06T08:33:27.629Z,10.30
2022-11-06T08:36:15.877Z,10.40
2022-11-06T08:39:02.898Z,10.40
2022-11-06T08:41:51.414Z,10.40
2022-11-06T08:44:39.283Z,10.50
2022-11-06T08:47:27.347Z,10.50
2022-11-06T08:50:15.260Z,10.60
2022-11-06T08:53:04.539Z,10.70
2022-11-06T08:55:52.174Z,10.70
2022-11-06T08:58:41.973Z,10.80
2022-11-06T09:01:29.373Z,10.90
2022-11-06T09:04:17.343Z,10.90
2022-11-06T09:07:05.154Z,11.00
2022-11-06T09:09:53.391Z,10.90
2022-11-06T09:12:40.821Z,10.80
2022-11-06T09:15:33.464Z,10.90
2022-11-06T09:18:21.357Z,10.80
2022-11-06T09:21:08.998Z,10.90
2022-11-06T09:23:56.828Z,10.90
2022-11-06T09:26:44.504Z,11.00
2022-11-06T09:29:31.949Z,11.10
2022-11-06T09:32:21.019Z,11.20
2022-11-06T09:35:08.981Z,11.40
2022-11-06T09:38:01.296Z,11.40
2022-11-06T09:40:51.042Z,11.50
2022-11-06T09:46:55.180Z,11.50
2022-11-06T09:49:46.780Z,11.60
2022-11-06T09:52:38.262Z,11.60
2022-11-06T09:55:29.290Z,11.60
2022-11-06T09:58:17.986Z,11.60
2022-11-06T10:01:08.426Z,11.50
2022-11-06T10:03:57.838Z,11.50
2022-11-06T10:06:47.095Z,11.50
2022-11-06T10:09:35.083Z,11.50
2022-11-06T10:12:27.440Z,11.50
2022-11-06T10:15:20.176Z,11.40
2022-11-06T10:18:11.150Z,11.50
2022-11-06T10:21:05.884Z,11.50
2022-11-06T10:23:57.804Z,11.50
2022-11-06T10:26:47.157Z,11.50
2022-11-06T10:29:41.196Z,11.40
2022-11-06T10:32:46.626Z,11.30
2022-11-06T10:35:39.978Z,11.30
2022-11-06T10:38:31.350Z,11.30
2022-11-06T10:41:22.525Z,11.20
2022-11-06T10:44:16.393Z,11.30
2022-11-06T10:47:05.987Z,11.40
2022-11-06T10:49:55.161Z,11.40
2022-11-06T10:52:48.896Z,11.50
2022-11-06T10:55:43.043Z,11.60
2022-11-06T10:58:33.378Z,11.70
2022-11-06T11:01:21.072Z,11.80
2022-11-06T11:04:08.364Z,11.90
2022-11-06T11:06:55.565Z,12.00
2022-11-06T11:09:45.476Z,12.10
2022-11-06T11:12:35.640Z,12.10
2022-11-06T11:15:25.703Z,12.10
2022-11-06T11:18:18.428Z,12.30
2022-11-06T11:21:08.397Z,12.10
2022-11-06T11:24:06.761Z,12.20
2022-11-06T11:27:00.013Z,12.30
2022-11-06T11:29:48.440Z,12.30
2022-11-06T11:32:37.758Z,12.40
2022-11-06T11:35:27.228Z,12.40
2022-11-06T11:38:16.876Z,12.40
2022-11-06T11:41:08.846Z,12.30
2022-11-06T11:43:59.596Z,12.30
2022-11-06T11:46:48.622Z,12.20
2022-11-06T11:49:37.757Z,12.10
2022-11-06T11:52:25.932Z,12.00
2022-11-06T11:55:16.229Z,11.90
2022-11-06T11:58:04.129Z,11.80
2022-11-06T12:00:56.124Z,11.70
2022-11-06T12:03:45.985Z,11.60
2022-11-06T12:06:36.132Z,11.50
2022-11-06T12:09:24.580Z,11.50
2022-11-06T12:12:22.419Z,11.50
2022-11-06T12:15:20.592Z,11.60
2022-11-06T12:18:11.904Z,11.40
2022-11-06T12:21:01.860Z,11.30
2022-11-06T12:23:52.889Z,11.20
2022-11-06T12:26:44.799Z,11.10
2022-11-06T12:29:33.612Z,11.10
2022-11-06T12:32:27.039Z,11.00
2022-11-06T12:35:18.841Z,11.00
2022-11-06T12:38:12.613Z,10.80
2022-11-06T12:41:04.352Z,10.70
2022-11-06T12:43:52.429Z,10.50
2022-11-06T12:46:45.071Z,10.30
2022-11-06T12:49:51.444Z,10.30
2022-11-06T12:53:00.887Z,10.10
2022-11-06T12:55:56.263Z,9.90
2022-11-06T12:59:04.972Z,9.80
2022-11-06T13:02:00.573Z,9.60
2022-11-06T13:04:53.544Z,9.50
2022-11-06T13:07:46.782Z,9.40
2022-11-06T13:10:42.745Z,9.40
2022-11-06T13:13:45.333Z,9.40
2022-11-06T13:16:36.088Z,9.30
2022-11-06T13:19:30.315Z,9.20
2022-11-06T13:22:24.656Z,9.20
2022-11-06T13:25:17.142Z,9.20
2022-11-06T13:28:08.691Z,9.20
2022-11-06T13:30:57.922Z,9.10
2022-11-06T13:33:48.617Z,9.00
2022-11-06T13:36:38.492Z,9.00
2022-11-06T13:39:29.414Z,8.90
2022-11-06T13:42:22.615Z,8.80
2022-11-06T13:45:10.959Z,8.80
2022-11-06T13:48:02.148Z,8.70
2022-11-06T13:50:53.841Z,8.60
2022-11-06T13:53:45.884Z,8.50
2022-11-06T13:56:43.559Z,8.40
2022-11-06T13:59:41.885Z,8.40
2022-11-06T14:02:44.475Z,8.40
2022-11-06T14:05:52.328Z,8.40
2022-11-06T14:08:43.137Z,8.30
2022-11-06T14:11:33.005Z,8.30
2022-11-06T14:14:25.442Z,8.20
2022-11-06T14:17:14.159Z,8.20
2022-11-06T14:20:03.800Z,8.20
2022-11-06T14:22:51.624Z,8.20
2022-11-06T14:25:46.489Z,8.10
2022-11-06T14:28:38.116Z,8.10
2022-11-06T14:31:41.067Z,8.10
2022-11-06T14:34:30.341Z,8.10
2022-11-06T14:37:37.997Z,8.10
2022-11-06T14:40:33.000Z,8.10
2022-11-06T14:43:23.545Z,8.00
2022-11-06T14:46:22.454Z,8.00
2022-11-06T14:49:22.765Z,8.00
2022-11-06T14:52:12.455Z,8.00
2022-11-06T14:55:05.997Z,8.00
2022-11-06T14:57:54.445Z,7.90
2022-11-06T15:00:45.632Z,7.90
2022-11-06T15:03:37.554Z,7.80
2022-11-06T15:06:43.576Z,7.80
2022-11-06T15:09:46.973Z,7.80
2022-11-06T15:12:52.652Z,7.80
2022-11-06T15:15:42.409Z,7.70
2022-11-06T15:18:33.046Z,7.60
2022-11-06T15:21:24.255Z,7.60
2022-11-06T15:24:15.237Z,7.60
2022-11-06T15:27:06.315Z,7.50
2022-11-06T15:29:54.525Z,7.50
2022-11-06T15:32:42.737Z,7.50
2022-11-06T15:35:34.493Z,7.40
2022-11-06T15:38:24.556Z,7.30
2022-11-06T15:41:14.357Z,7.30
2022-11-06T15:44:02.339Z,7.30
2022-11-06T15:46:56.370Z,7.30
2022-11-06T15:49:46.226Z,7.30
2022-11-06T15:52:33.857Z,7.30
2022-11-06T15:55:29.999Z,7.30
2022-11-06T15:58:30.391Z,7.20
2022-11-06T16:01:27.270Z,7.20
2022-11-06T16:04:17.924Z,7.20
2022-11-06T16:07:06.206Z,7.30
2022-11-06T16:09:54.510Z,7.30
2022-11-06T16:12:43.539Z,7.30
2022-11-06T16:15:51.343Z,7.30
2022-11-06T16:18:40.940Z,7.30
2022-11-06T16:21:30.469Z,7.30
2022-11-06T16:24:17.685Z,7.30
2022-11-06T16:27:06.818Z,7.20
2022-11-06T16:29:57.902Z,7.30
2022-11-06T16:32:45.596Z,7.30
2022-11-06T16:35:34.583Z,7.30
2022-11-06T16:38:42.483Z,7.30
2022-11-06T16:41:58.085Z,7.30
2022-11-06T16:44:46.353Z,7.30
2022-11-06T16:47:36.068Z,7.30
2022-11-06T16:50:42.383Z,7.40
2022-11-06T16:53:31.755Z,7.40
2022-11-06T16:56:27.579Z,7.40
2022-11-06T16:59:16.749Z,9.40
2022-11-06T17:02:05.494Z,7.40
2022-11-06T17:05:07.367Z,6.00
2022-11-06T17:08:06.262Z,7.50
2022-11-06T17:10:57.034Z,7.50
2022-11-06T17:13:45.563Z,9.10
2022-11-06T17:16:45.634Z,7.60
2022-11-06T17:19:34.642Z,7.60
2022-11-06T17:22:23.766Z,7.60
2022-11-06T17:25:12.033Z,7.60
2022-11-06T17:27:59.368Z,7.70
2022-11-06T17:30:48.011Z,7.80
2022-11-06T17:33:36.236Z,7.80
2022-11-06T17:36:25.076Z,7.80
2022-11-06T17:39:14.985Z,7.80
2022-11-06T17:42:02.816Z,7.90
2022-11-06T17:44:50.827Z,7.90
2022-11-06T17:47:38.457Z,8.00
2022-11-06T17:50:26.735Z,8.00
2022-11-06T17:53:15.200Z,8.10
2022-11-06T17:56:05.990Z,8.20
2022-11-06T17:58:54.335Z,8.20
2022-11-06T18:01:42.108Z,8.30
2022-11-06T18:04:31.455Z,8.20
2022-11-06T18:07:18.903Z,8.30
2022-11-06T18:10:07.619Z,8.40
2022-11-06T18:12:56.261Z,8.40
2022-11-06T18:15:43.901Z,8.40
2022-11-06T18:18:32.246Z,8.50
2022-11-06T18:21:20.738Z,8.50
2022-11-06T18:24:08.589Z,8.50
2022-11-06T18:26:56.290Z,8.60
2022-11-06T18:29:45.735Z,8.70
2022-11-06T18:32:33.601Z,8.60
2022-11-06T18:35:21.205Z,8.70
2022-11-06T18:38:08.512Z,8.70
2022-11-06T18:40:56.548Z,8.70
2022-11-06T18:43:46.122Z,8.80
2022-11-06T18:46:35.816Z,8.80
2022-11-06T18:49:24.280Z,8.80
2022-11-06T18:52:12.150Z,8.90
2022-11-06T18:55:01.141Z,9.00
2022-11-06T18:57:49.359Z,9.00
2022-11-06T19:00:36.782Z,9.00
2022-11-06T19:03:26.197Z,9.10
2022-11-06T19:06:14.825Z,9.10
2022-11-06T19:09:02.919Z,9.10
2022-11-06T19:11:51.011Z,9.20
2022-11-06T19:14:38.125Z,9.20
2022-11-06T19:17:25.314Z,9.20
2022-11-06T19:20:15.255Z,9.20
2022-11-06T19:23:02.943Z,9.30
2022-11-06T19:25:54.545Z,9.30
2022-11-06T19:28:56.458Z,9.30
2022-11-06T19:31:45.384Z,9.40
2022-11-06T19:34:38.886Z,9.40
2022-11-06T19:37:29.305Z,9.50
2022-11-06T19:40:17.083Z,9.50
2022-11-06T19:43:07.126Z,9.50
2022-11-06T19:45:55.092Z,9.50
2022-11-06T19:48:42.415Z,9.50
2022-11-06T19:51:30.882Z,9.50
2022-11-06T19:54:20.260Z,9.70
2022-11-06T19:57:28.340Z,9.50
2022-11-06T20:00:17.816Z,9.60
2022-11-06T20:03:05.177Z,9.60
2022-11-06T20:05:53.453Z,9.60
2022-11-06T20:08:41.226Z,9.70
2022-11-06T20:11:30.206Z,9.60
2022-11-06T20:14:21.700Z,9.70
2022-11-06T20:17:09.485Z,9.70
2022-11-06T20:19:58.360Z,9.60
2022-11-06T20:22:46.261Z,9.60
2022-11-06T20:25:34.445Z,9.60
2022-11-06T20:28:23.620Z,9.70
2022-11-06T20:31:12.653Z,9.70
2022-11-06T20:33:59.851Z,9.70
2022-11-06T20:36:46.938Z,9.70
2022-11-06T20:39:34.370Z,9.80
2022-11-06T20:42:22.248Z,9.90
2022-11-06T20:45:11.445Z,9.90
2022-11-06T20:47:59.402Z,10.00
2022-11-06T20:50:57.088Z,9.90
2022-11-06T20:53:46.494Z,9.80
2022-11-06T20:56:34.196Z,9.80
2022-11-06T20:59:22.257Z,9.90
2022-11-06T21:02:12.408Z,9.90
2022-11-06T21:05:00.502Z,10.00
2022-11-06T21:07:47.702Z,10.10
2022-11-06T21:10:35.241Z,9.80
2022-11-06T21:13:22.851Z,10.90
2022-11-06T21:16:12.697Z,10.10
2022-11-06T21:19:02.196Z,10.20
2022-11-06T21:21:50.322Z,10.20
2022-11-06T21:24:37.796Z,10.20
2022-11-06T21:27:25.956Z,10.20
2022-11-06T21:30:13.572Z,10.20
2022-11-06T21:33:01.688Z,10.10
2022-11-06T21:35:51.356Z,10.20
2022-11-06T21:38:38.699Z,10.20
2022-11-06T21:41:26.965Z,10.20
2022-11-06T21:44:15.373Z,10.20
2022-11-06T21:47:03.216Z,10.20
2022-11-06T21:49:54.889Z,10.20
2022-11-06T21:53:01.736Z,10.20
2022-11-06T21:56:02.495Z,10.20
2022-11-06T21:58:50.947Z,10.30
2022-11-06T22:01:39.918Z,10.30
2022-11-06T22:04:27.827Z,10.40
2022-11-06T22:07:15.272Z,10.40
2022-11-06T22:10:04.554Z,10.50
2022-11-06T22:12:52.777Z,10.50
2022-11-06T22:15:40.486Z,10.50
2022-11-06T22:18:29.654Z,10.50
2022-11-06T22:21:19.180Z,10.40
2022-11-06T22:24:07.777Z,10.40
2022-11-06T22:26:56.880Z,10.40
2022-11-06T22:29:44.639Z,10.40
2022-11-06T22:32:32.264Z,10.30
2022-11-06T22:35:20.102Z,10.30
2022-11-06T22:38:10.135Z,10.30
2022-11-06T22:41:00.523Z,10.30
2022-11-06T22:43:49.235Z,10.30
2022-11-06T22:46:37.616Z,10.40
2022-11-06T22:49:26.803Z,10.40
2022-11-06T22:52:14.404Z,10.30
2022-11-06T22:55:02.147Z,10.50
2022-11-06T22:57:49.528Z,10.50
2022-11-06T23:00:38.514Z,10.50
2022-11-06T23:03:26.412Z,10.50
2022-11-06T23:06:14.368Z,10.50
2022-11-06T23:09:01.894Z,10.40
2022-11-06T23:11:49.733Z,10.40
2022-11-06T23:14:38.015Z,10.40
2022-11-06T23:17:27.252Z,10.40
2022-11-06T23:20:15.317Z,10.40
2022-11-06T23:23:03.870Z,10.40
2022-11-06T23:25:51.473Z,10.30
2022-11-06T23:28:39.130Z,10.30
2022-11-06T23:31:27.276Z,10.30
2022-11-06T23:34:16.206Z,10.20
2022-11-06T23:37:03.405Z,10.20
2022-11-06T23:39:51.509Z,10.30
2022-11-06T23:42:38.851Z,10.30
2022-11-06T23:45:44.143Z,10.30
2022-11-06T23:48:31.643Z,10.30
2022-11-06T23:51:21.061Z,10.50
2022-11-06T23:54:08.681Z,10.40
2022-11-06T23:56:56.404Z,10.50
2022-11-06T23:59:44.448Z,10.10
